createdAt,value
2022-08-20T00:00:09.653Z,26.80
2022-08-20T00:06:25.006Z,26.70
2022-08-20T00:12:38.511Z,26.70
2022-08-20T00:18:51.022Z,26.70
2022-08-20T00:25:05.265Z,26.70
2022-08-20T00:31:20.178Z,26.60
2022-08-20T00:37:35.237Z,26.50
2022-08-20T00:43:48.785Z,26.50
2022-08-20T00:50:01.090Z,26.40
2022-08-20T00:56:14.726Z,26.40
2022-08-20T01:02:27.836Z,26.40
2022-08-20T01:08:42.330Z,26.20
2022-08-20T01:14:55.223Z,26.20
2022-08-20T01:21:08.855Z,26.10
2022-08-20T01:27:23.418Z,26.10
2022-08-20T01:33:40.809Z,26.00
2022-08-20T01:39:53.798Z,25.90
2022-08-20T01:46:04.802Z,25.90
2022-08-20T01:52:16.914Z,25.90
2022-08-20T01:58:29.676Z,25.90
2022-08-20T02:04:44.196Z,25.80
2022-08-20T02:10:58.458Z,25.80
2022-08-20T02:17:13.131Z,25.70
2022-08-20T02:23:25.904Z,25.70
2022-08-20T02:29:40.392Z,25.60
2022-08-20T02:35:54.534Z,25.60
2022-08-20T02:42:09.354Z,25.50
2022-08-20T02:48:26.081Z,25.50
2022-08-20T02:54:39.391Z,25.50
2022-08-20T03:00:52.423Z,25.40
2022-08-20T03:07:06.737Z,25.40
2022-08-20T03:13:17.970Z,25.30
2022-08-20T03:19:29.438Z,25.30
2022-08-20T03:25:44.919Z,25.20
2022-08-20T03:31:58.940Z,25.20
2022-08-20T03:38:13.749Z,25.10
2022-08-20T03:44:27.396Z,25.10
2022-08-20T03:50:40.132Z,25.00
2022-08-20T03:56:55.150Z,25.00
2022-08-20T04:03:07.613Z,24.90
2022-08-20T04:09:21.182Z,24.80
2022-08-20T04:15:34.248Z,24.80
2022-08-20T04:21:47.272Z,24.70
2022-08-20T04:28:01.543Z,24.70
2022-08-20T04:34:14.531Z,24.70
2022-08-20T04:40:40.659Z,24.70
2022-08-20T04:46:54.864Z,24.60
2022-08-20T04:53:09.198Z,24.60
2022-08-20T04:59:24.222Z,24.50
2022-08-20T05:05:36.072Z,24.40
2022-08-20T05:11:50.416Z,24.40
2022-08-20T05:18:06.445Z,24.30
2022-08-20T05:24:19.145Z,24.30
2022-08-20T05:30:36.236Z,24.30
2022-08-20T05:36:50.505Z,24.20
2022-08-20T05:43:06.251Z,24.20
2022-08-20T05:49:20.237Z,24.10
2022-08-20T05:55:30.778Z,24.30
2022-08-20T06:01:46.390Z,24.40
2022-08-20T06:08:07.159Z,24.50
2022-08-20T06:14:14.538Z,24.60
2022-08-20T06:20:25.918Z,24.70
2022-08-20T06:26:40.102Z,24.80
2022-08-20T06:32:55.066Z,24.70
2022-08-20T06:39:09.306Z,24.60
2022-08-20T06:45:22.718Z,24.40
2022-08-20T06:51:36.754Z,24.30
2022-08-20T06:57:50.876Z,24.30
2022-08-20T07:04:02.868Z,24.50
2022-08-20T07:10:20.338Z,24.60
2022-08-20T07:16:34.608Z,24.70
2022-08-20T07:22:47.021Z,24.70
2022-08-20T07:29:01.388Z,24.80
2022-08-20T07:35:17.708Z,24.80
2022-08-20T07:41:31.564Z,24.70
2022-08-20T07:47:41.243Z,24.80
2022-08-20T07:53:55.688Z,24.80
2022-08-20T08:00:08.948Z,24.80
2022-08-20T08:06:29.518Z,24.80
2022-08-20T08:12:40.830Z,24.80
2022-08-20T08:18:57.773Z,24.80
2022-08-20T08:25:12.656Z,24.80
2022-08-20T08:31:25.026Z,24.90
2022-08-20T08:37:40.149Z,24.90
2022-08-20T08:43:54.931Z,24.80
2022-08-20T08:50:07.977Z,24.80
2022-08-20T08:56:22.540Z,24.80
2022-08-20T09:02:34.840Z,24.80
2022-08-20T09:08:50.263Z,24.80
2022-08-20T09:15:03.857Z,24.80
2022-08-20T09:21:16.976Z,24.90
2022-08-20T09:27:30.983Z,24.90
2022-08-20T09:33:44.964Z,24.90
2022-08-20T09:39:59.389Z,24.70
2022-08-20T09:46:10.560Z,24.70
2022-08-20T09:52:27.024Z,24.80
2022-08-20T09:58:43.308Z,24.80
2022-08-20T10:04:56.318Z,24.80
2022-08-20T10:11:09.192Z,24.70
2022-08-20T10:17:23.180Z,24.70
2022-08-20T10:23:35.633Z,24.70
2022-08-20T10:29:47.977Z,24.80
2022-08-20T10:36:02.091Z,24.70
2022-08-20T10:42:16.548Z,24.60
2022-08-20T10:48:30.449Z,24.70
2022-08-20T10:54:44.697Z,24.70
2022-08-20T11:00:58.886Z,24.70
2022-08-20T11:07:23.094Z,24.60
2022-08-20T11:13:37.252Z,24.60
2022-08-20T11:19:52.385Z,24.70
2022-08-20T11:26:06.473Z,24.70
2022-08-20T11:32:20.454Z,24.70
2022-08-20T11:38:34.472Z,24.60
2022-08-20T11:44:47.370Z,24.60
2022-08-20T11:50:58.361Z,24.70
2022-08-20T11:57:13.687Z,24.80
2022-08-20T12:03:27.629Z,24.90
2022-08-20T12:09:50.717Z,25.00
2022-08-20T12:15:57.233Z,25.00
2022-08-20T12:22:21.375Z,25.00
2022-08-20T12:28:27.280Z,25.00
2022-08-20T12:34:41.669Z,25.10
2022-08-20T12:40:55.764Z,25.00
2022-08-20T12:47:18.263Z,24.90
2022-08-20T12:53:32.269Z,25.00
2022-08-20T12:59:48.046Z,25.00
2022-08-20T13:06:02.793Z,25.00
2022-08-20T13:12:18.618Z,25.10
2022-08-20T13:18:34.636Z,25.30
2022-08-20T13:24:49.090Z,25.40
2022-08-20T13:30:58.439Z,25.60
2022-08-20T13:37:15.017Z,25.70
2022-08-20T13:43:25.565Z,25.80
2022-08-20T13:49:38.026Z,26.00
2022-08-20T13:55:55.768Z,26.10
2022-08-20T14:02:09.926Z,26.10
2022-08-20T14:08:23.342Z,26.30
2022-08-20T14:14:36.250Z,26.40
2022-08-20T14:20:47.654Z,26.50
2022-08-20T14:27:02.495Z,26.50
2022-08-20T14:33:16.722Z,26.70
2022-08-20T14:39:26.320Z,26.70
2022-08-20T14:45:40.949Z,26.80
2022-08-20T14:51:53.271Z,26.90
2022-08-20T15:19:07.660Z,27.10
2022-08-20T15:25:22.244Z,27.20
2022-08-20T15:31:34.396Z,27.20
2022-08-20T15:37:50.404Z,27.30
2022-08-20T15:44:05.220Z,27.30
2022-08-20T15:50:18.739Z,27.40
2022-08-20T15:56:50.450Z,27.50
2022-08-20T16:03:13.708Z,27.50
2022-08-20T16:09:35.122Z,27.60
2022-08-20T16:15:49.673Z,27.60
2022-08-20T16:22:05.055Z,27.70
2022-08-20T16:28:23.509Z,27.70
2022-08-20T16:34:41.647Z,27.70
2022-08-20T16:40:56.231Z,27.80
2022-08-20T16:47:13.943Z,27.80
2022-08-20T16:53:28.273Z,27.90
2022-08-20T16:59:41.644Z,28.00
2022-08-20T17:05:58.565Z,28.00
2022-08-20T17:12:26.541Z,28.00
2022-08-20T17:18:41.006Z,28.00
2022-08-20T17:24:56.252Z,28.10
2022-08-20T17:31:14.603Z,28.10
2022-08-20T17:37:28.548Z,28.10
2022-08-20T17:43:43.648Z,28.10
2022-08-20T17:50:03.261Z,28.10
2022-08-20T17:56:21.844Z,28.10
2022-08-20T18:02:35.668Z,28.10
2022-08-20T18:08:49.409Z,28.10
2022-08-20T18:15:07.573Z,28.10
2022-08-20T18:28:16.598Z,28.20
2022-08-20T18:34:31.508Z,28.10
2022-08-20T18:40:45.651Z,28.20
2022-08-20T18:47:00.253Z,28.30
2022-08-20T18:53:17.125Z,28.30
2022-08-20T18:59:27.605Z,28.30
2022-08-20T19:05:42.888Z,28.30
2022-08-20T19:12:06.639Z,28.20
2022-08-20T19:18:20.858Z,28.20
2022-08-20T19:24:43.201Z,28.30
2022-08-20T19:30:53.798Z,28.30
2022-08-20T19:37:35.571Z,28.30
2022-08-20T19:43:26.823Z,28.30
2022-08-20T19:49:37.324Z,28.30
2022-08-20T19:55:52.681Z,28.30
2022-08-20T20:02:21.364Z,28.40
2022-08-20T20:08:24.623Z,28.30
2022-08-20T20:14:39.881Z,28.40
2022-08-20T20:20:57.205Z,28.30
2022-08-20T20:27:08.600Z,28.30
2022-08-20T20:33:21.994Z,28.00
2022-08-20T20:39:37.371Z,27.60
2022-08-20T20:45:49.537Z,27.40
2022-08-20T20:52:03.055Z,27.50
2022-08-20T20:58:13.877Z,27.80
2022-08-20T21:04:27.115Z,28.00
2022-08-20T21:10:38.878Z,28.10
2022-08-20T21:16:48.926Z,28.10
2022-08-20T21:22:59.578Z,28.20
2022-08-20T21:29:11.552Z,28.10
2022-08-20T21:35:22.504Z,27.80
2022-08-20T21:41:33.411Z,27.50
2022-08-20T21:47:45.172Z,27.40
2022-08-20T21:53:57.325Z,27.40
2022-08-20T22:00:11.334Z,27.40
2022-08-20T22:06:22.354Z,27.30
2022-08-20T22:12:32.072Z,27.20
2022-08-20T22:18:41.078Z,27.10
2022-08-20T22:24:55.115Z,27.00
2022-08-20T22:31:04.876Z,27.00
2022-08-20T22:37:12.148Z,27.00
2022-08-20T22:43:25.603Z,26.90
2022-08-20T22:49:37.327Z,26.90
2022-08-20T22:55:45.706Z,26.90
2022-08-20T23:01:55.370Z,26.80
2022-08-20T23:08:02.657Z,26.90
2022-08-20T23:14:13.449Z,26.90
2022-08-20T23:20:25.863Z,26.80
2022-08-20T23:26:36.631Z,26.80
2022-08-20T23:32:49.911Z,26.70
2022-08-20T23:39:02.339Z,26.70
2022-08-20T23:45:13.588Z,26.60
2022-08-20T23:51:26.601Z,26.60
2022-08-20T23:57:35.845Z,26.60
